createdAt,value
2018-11-04T00:00:24.856Z,71.10
2018-11-04T00:02:53.993Z,71.10
2018-11-04T00:05:22.943Z,71.10
2018-11-04T00:07:52.414Z,71.00
2018-11-04T00:10:21.366Z,71.00
2018-11-04T00:12:50.548Z,71.00
2018-11-04T00:15:19.536Z,71.00
2018-11-04T00:17:48.534Z,71.00
2018-11-04T00:20:17.706Z,71.00
2018-11-04T00:22:46.592Z,71.70
2018-11-04T00:25:15.612Z,71.00
2018-11-04T00:27:44.671Z,71.00
2018-11-04T00:30:15.543Z,71.00
2018-11-04T00:32:44.883Z,71.00
2018-11-04T00:35:13.844Z,71.10
2018-11-04T00:37:42.798Z,71.20
2018-11-04T00:40:11.801Z,71.20
2018-11-04T00:42:40.774Z,71.20
2018-11-04T00:45:10.300Z,71.30
2018-11-04T00:47:39.984Z,71.40
2018-11-04T00:50:12.755Z,71.30
2018-11-04T00:52:42.138Z,71.30
2018-11-04T00:55:11.683Z,71.30
2018-11-04T00:57:40.946Z,71.40
2018-11-04T01:00:18.413Z,71.40
2018-11-04T01:02:49.179Z,71.50
2018-11-04T01:05:18.913Z,71.50
2018-11-04T01:07:47.901Z,71.50
2018-11-04T01:10:16.929Z,71.50
2018-11-04T01:12:46.298Z,71.50
2018-11-04T01:15:15.954Z,71.50
2018-11-04T01:17:45.033Z,71.50
2018-11-04T01:20:16.399Z,71.50
2018-11-04T01:22:45.805Z,71.60
2018-11-04T01:25:14.850Z,71.50
2018-11-04T01:27:43.828Z,71.50
2018-11-04T01:30:14.450Z,71.60
2018-11-04T01:32:43.926Z,71.50
2018-11-04T01:35:12.920Z,71.50
2018-11-04T01:37:42.685Z,71.50
2018-11-04T01:40:11.840Z,71.50
2018-11-04T01:42:40.998Z,71.50
2018-11-04T01:45:11.697Z,71.50
2018-11-04T01:47:40.933Z,71.50
2018-11-04T01:50:13.175Z,71.60
2018-11-04T01:52:42.279Z,71.60
2018-11-04T01:55:12.373Z,71.60
2018-11-04T01:57:41.545Z,71.60
2018-11-04T02:00:15.031Z,71.60
2018-11-04T02:02:44.753Z,71.60
2018-11-04T02:05:14.152Z,71.60
2018-11-04T02:07:43.277Z,71.60
2018-11-04T02:10:13.416Z,71.60
2018-11-04T02:12:42.417Z,71.60
2018-11-04T02:15:12.750Z,71.60
2018-11-04T02:17:41.923Z,71.60
2018-11-04T02:20:12.373Z,71.60
2018-11-04T02:22:41.863Z,71.60
2018-11-04T02:25:12.173Z,71.60
2018-11-04T02:27:41.503Z,71.60
2018-11-04T02:30:14.486Z,71.50
2018-11-04T02:32:44.454Z,71.50
2018-11-04T02:35:14.328Z,71.50
2018-11-04T02:37:43.321Z,71.60
2018-11-04T02:40:12.826Z,71.60
2018-11-04T02:42:41.887Z,71.60
2018-11-04T02:45:11.217Z,71.70
2018-11-04T02:47:40.798Z,71.70
2018-11-04T02:50:10.531Z,71.70
2018-11-04T02:52:39.906Z,71.70
2018-11-04T02:55:09.373Z,71.70
2018-11-04T02:57:38.604Z,71.70
2018-11-04T03:00:10.152Z,71.70
2018-11-04T03:02:39.191Z,71.70
2018-11-04T03:05:08.699Z,71.70
2018-11-04T03:07:37.760Z,71.70
2018-11-04T03:10:06.987Z,71.60
2018-11-04T03:12:35.965Z,71.60
2018-11-04T03:15:04.932Z,71.60
2018-11-04T03:17:34.009Z,71.50
2018-11-04T03:20:02.974Z,71.50
2018-11-04T03:22:32.092Z,71.40
2018-11-04T03:25:01.750Z,71.40
2018-11-04T03:27:30.742Z,71.40
2018-11-04T03:29:59.745Z,71.40
2018-11-04T03:32:28.806Z,71.40
2018-11-04T03:34:57.700Z,71.30
2018-11-04T03:37:26.725Z,71.40
2018-11-04T03:39:55.859Z,71.40
2018-11-04T03:42:24.841Z,71.30
2018-11-04T03:44:54.596Z,71.20
2018-11-04T03:47:24.028Z,71.10
2018-11-04T03:49:53.629Z,71.00
2018-11-04T03:52:22.584Z,71.00
2018-11-04T03:54:51.646Z,70.90
2018-11-04T03:57:20.713Z,70.70
2018-11-04T03:59:49.836Z,70.70
2018-11-04T04:02:19.063Z,70.70
2018-11-04T04:04:48.281Z,70.60
2018-11-04T04:07:17.303Z,70.50
2018-11-04T04:09:46.469Z,70.30
2018-11-04T04:12:16.178Z,70.20
2018-11-04T04:14:46.331Z,70.10
2018-11-04T04:17:15.399Z,69.90
2018-11-04T04:19:46.410Z,69.80
2018-11-04T04:22:15.455Z,69.50
2018-11-04T04:24:44.448Z,69.40
2018-11-04T04:27:13.500Z,69.40
2018-11-04T04:29:42.613Z,69.30
2018-11-04T04:32:11.572Z,69.30
2018-11-04T04:34:40.727Z,69.20
2018-11-04T04:37:10.541Z,69.10
2018-11-04T04:39:39.477Z,69.10
2018-11-04T04:42:08.527Z,68.90
2018-11-04T04:44:38.153Z,69.10
2018-11-04T04:47:07.256Z,69.00
2018-11-04T04:49:41.259Z,69.00
2018-11-04T04:52:12.138Z,68.80
2018-11-04T04:54:41.478Z,68.80
2018-11-04T04:57:12.134Z,68.80
2018-11-04T04:59:43.543Z,68.90
2018-11-04T05:02:14.059Z,68.90
2018-11-04T05:04:43.669Z,68.90
2018-11-04T05:07:14.160Z,68.90
2018-11-04T05:09:43.598Z,68.90
2018-11-04T05:12:12.980Z,68.80
2018-11-04T05:14:42.172Z,68.90
2018-11-04T05:17:11.331Z,68.90
2018-11-04T05:19:40.599Z,68.80
2018-11-04T05:22:09.851Z,69.00
2018-11-04T05:24:39.073Z,69.00
2018-11-04T05:27:08.178Z,69.00
2018-11-04T05:29:37.356Z,69.00
2018-11-04T05:32:06.591Z,69.70
2018-11-04T05:34:35.802Z,69.00
2018-11-04T05:37:05.268Z,69.00
2018-11-04T05:39:34.637Z,69.00
2018-11-04T05:42:04.241Z,69.00
2018-11-04T05:44:33.199Z,69.10
2018-11-04T05:47:02.226Z,69.10
2018-11-04T05:49:31.280Z,69.10
2018-11-04T05:52:00.389Z,69.10
2018-11-04T05:54:29.460Z,69.10
2018-11-04T05:56:58.607Z,69.90
2018-11-04T05:59:27.692Z,69.20
2018-11-04T06:02:01.084Z,69.20
2018-11-04T06:04:30.088Z,69.20
2018-11-04T06:06:59.012Z,69.20
2018-11-04T06:09:28.049Z,69.20
2018-11-04T06:11:57.200Z,69.20
2018-11-04T06:14:26.226Z,69.80
2018-11-04T06:16:55.265Z,69.00
2018-11-04T06:19:24.323Z,69.00
2018-11-04T06:21:53.934Z,69.00
2018-11-04T06:24:23.157Z,68.90
2018-11-04T06:26:52.330Z,68.80
2018-11-04T06:29:21.754Z,68.70
2018-11-04T06:31:51.035Z,68.60
2018-11-04T06:34:20.204Z,68.60
2018-11-04T06:36:49.294Z,68.50
2018-11-04T06:39:18.349Z,68.40
2018-11-04T06:41:48.408Z,68.30
2018-11-04T06:44:17.477Z,68.20
2018-11-04T06:46:48.278Z,68.20
2018-11-04T06:49:17.303Z,68.10
2018-11-04T06:51:47.240Z,68.00
2018-11-04T06:54:17.297Z,68.00
2018-11-04T06:56:47.210Z,68.10
2018-11-04T06:59:16.409Z,68.00
2018-11-04T07:01:45.567Z,67.90
2018-11-04T07:04:21.306Z,67.80
2018-11-04T07:06:50.574Z,67.80
2018-11-04T07:09:19.551Z,67.80
2018-11-04T07:11:49.837Z,67.80
2018-11-04T07:14:19.527Z,67.70
2018-11-04T07:16:48.569Z,67.70
2018-11-04T07:19:17.737Z,67.60
2018-11-04T07:21:46.891Z,67.50
2018-11-04T07:24:16.842Z,67.50
2018-11-04T07:26:45.887Z,67.40
2018-11-04T07:29:15.002Z,67.30
2018-11-04T07:31:44.049Z,67.40
2018-11-04T07:34:13.173Z,67.20
2018-11-04T07:36:42.239Z,67.20
2018-11-04T07:39:12.896Z,67.20
2018-11-04T07:41:41.967Z,67.20
2018-11-04T07:44:11.156Z,67.20
2018-11-04T07:46:40.201Z,67.20
2018-11-04T07:49:09.362Z,67.20
2018-11-04T07:51:38.647Z,67.10
2018-11-04T07:54:08.031Z,67.30
2018-11-04T07:56:37.174Z,67.30
2018-11-04T07:59:06.665Z,67.30
2018-11-04T08:01:35.805Z,67.20
2018-11-04T08:04:05.197Z,67.20
2018-11-04T08:06:34.387Z,67.20
2018-11-04T08:09:04.224Z,67.20
2018-11-04T08:11:33.373Z,67.20
2018-11-04T08:14:02.466Z,67.20
2018-11-04T08:16:31.894Z,67.20
2018-11-04T08:19:01.744Z,67.10
2018-11-04T08:21:31.066Z,67.20
2018-11-04T08:24:00.039Z,67.20
2018-11-04T08:26:29.159Z,67.10
2018-11-04T08:28:59.214Z,67.20
2018-11-04T08:31:28.319Z,67.10
2018-11-04T08:33:57.427Z,67.10
2018-11-04T08:36:26.669Z,67.10
2018-11-04T08:38:55.805Z,67.10
2018-11-04T08:41:24.928Z,67.10
2018-11-04T08:43:54.157Z,67.10
2018-11-04T08:46:26.741Z,67.20
2018-11-04T08:48:56.090Z,67.20
2018-11-04T08:51:25.270Z,67.20
2018-11-04T08:53:54.284Z,67.20
2018-11-04T08:56:23.538Z,67.10
2018-11-04T08:58:52.645Z,67.10
2018-11-04T09:01:21.784Z,67.10
2018-11-04T09:03:50.995Z,67.10
2018-11-04T09:06:19.992Z,67.10
2018-11-04T09:08:49.275Z,67.20
2018-11-04T09:11:18.339Z,67.20
2018-11-04T09:13:47.446Z,67.20
2018-11-04T09:16:16.710Z,67.10
2018-11-04T09:18:52.153Z,67.20
2018-11-04T09:21:21.118Z,67.10
2018-11-04T09:23:50.321Z,67.10
2018-11-04T09:26:19.468Z,67.10
2018-11-04T09:28:48.478Z,67.20
2018-11-04T09:31:17.736Z,67.20
2018-11-04T09:33:46.828Z,67.90
2018-11-04T09:36:16.193Z,67.20
2018-11-04T09:38:45.687Z,67.20
2018-11-04T09:41:14.964Z,67.20
2018-11-04T09:43:44.810Z,67.20
2018-11-04T09:46:14.000Z,67.10
2018-11-04T09:48:44.230Z,67.10
2018-11-04T09:51:13.472Z,67.00
2018-11-04T09:53:42.628Z,66.90
2018-11-04T09:56:11.808Z,66.90
2018-11-04T09:58:41.644Z,66.90
2018-11-04T10:01:17.067Z,66.80
2018-11-04T10:03:46.051Z,66.90
2018-11-04T10:06:15.259Z,66.90
2018-11-04T10:08:44.413Z,66.90
2018-11-04T10:11:13.545Z,67.00
2018-11-04T10:13:42.691Z,67.00
2018-11-04T10:16:12.334Z,67.00
2018-11-04T10:18:41.540Z,67.10
2018-11-04T10:21:10.877Z,67.20
2018-11-04T10:23:40.358Z,67.20
2018-11-04T10:26:09.695Z,67.30
2018-11-04T10:28:43.969Z,67.20
2018-11-04T10:31:13.023Z,67.30
2018-11-04T10:33:42.578Z,67.40
2018-11-04T10:36:11.749Z,67.40
2018-11-04T10:38:40.964Z,67.50
2018-11-04T10:41:10.300Z,67.60
2018-11-04T10:43:40.111Z,67.80
2018-11-04T10:46:09.050Z,67.80
2018-11-04T10:48:38.061Z,67.80
2018-11-04T10:51:07.288Z,67.90
2018-11-04T10:53:36.260Z,67.90
2018-11-04T10:56:05.388Z,67.90
2018-11-04T10:58:34.343Z,67.90
2018-11-04T11:01:10.811Z,67.90
2018-11-04T11:03:40.276Z,67.90
2018-11-04T11:06:09.559Z,68.00
2018-11-04T11:08:38.722Z,68.10
2018-11-04T11:11:14.111Z,68.10
2018-11-04T11:13:43.185Z,68.10
2018-11-04T11:16:12.167Z,68.20
2018-11-04T11:18:41.231Z,68.20
2018-11-04T11:21:10.343Z,68.30
2018-11-04T11:23:39.692Z,68.40
2018-11-04T11:26:08.507Z,68.40
2018-11-04T11:28:37.545Z,68.50
2018-11-04T11:31:07.777Z,68.60
2018-11-04T11:33:42.755Z,68.50
2018-11-04T11:36:21.578Z,68.60
2018-11-04T11:38:50.683Z,68.70
2018-11-04T11:41:19.882Z,68.80
2018-11-04T11:43:49.052Z,68.80
2018-11-04T11:46:24.790Z,68.90
2018-11-04T11:48:54.048Z,69.00
2018-11-04T11:51:23.093Z,68.90
2018-11-04T11:53:52.023Z,69.00
2018-11-04T11:56:21.203Z,69.10
2018-11-04T11:58:50.441Z,69.10
2018-11-04T12:01:19.832Z,69.10
2018-11-04T12:03:48.701Z,69.10
2018-11-04T12:06:17.718Z,69.20
2018-11-04T12:08:46.693Z,69.20
2018-11-04T12:11:15.586Z,69.20
2018-11-04T12:13:44.641Z,69.30
2018-11-04T12:16:13.673Z,69.30
2018-11-04T12:18:42.671Z,69.30
2018-11-04T12:21:11.687Z,69.30
2018-11-04T12:23:40.701Z,69.40
2018-11-04T12:26:09.638Z,69.50
2018-11-04T12:28:38.573Z,69.60
2018-11-04T12:31:07.538Z,69.60
2018-11-04T12:33:36.680Z,69.60
2018-11-04T12:36:05.621Z,69.70
2018-11-04T12:38:34.671Z,69.70
2018-11-04T12:41:03.598Z,69.80
2018-11-04T12:43:32.703Z,69.80
2018-11-04T12:46:01.766Z,69.70
2018-11-04T12:48:30.829Z,69.80
2018-11-04T12:50:59.878Z,69.80
2018-11-04T12:53:28.977Z,69.90
2018-11-04T12:55:57.997Z,69.90
2018-11-04T12:58:30.051Z,69.90
2018-11-04T13:00:59.081Z,69.90
2018-11-04T13:03:28.360Z,69.90
2018-11-04T13:05:57.468Z,69.90
2018-11-04T13:08:26.570Z,70.00
2018-11-04T13:10:55.627Z,70.00
2018-11-04T13:13:25.457Z,70.00
2018-11-04T13:15:56.018Z,70.10
2018-11-04T13:18:25.244Z,70.10
2018-11-04T13:20:54.588Z,70.10
2018-11-04T13:23:23.611Z,70.20
2018-11-04T13:25:52.783Z,70.10
2018-11-04T13:28:22.268Z,70.20
2018-11-04T13:30:55.981Z,70.20
2018-11-04T13:33:25.446Z,70.30
2018-11-04T13:35:54.587Z,70.30
2018-11-04T13:38:34.141Z,70.50
2018-11-04T13:41:03.394Z,70.50
2018-11-04T13:43:33.338Z,70.50
2018-11-04T13:46:02.534Z,70.50
2018-11-04T13:48:31.665Z,70.50
2018-11-04T13:51:00.842Z,70.50
2018-11-04T13:53:30.128Z,70.60
2018-11-04T13:55:59.106Z,70.60
2018-11-04T13:58:28.166Z,70.70
2018-11-04T14:00:57.095Z,70.90
2018-11-04T14:03:26.058Z,71.60
2018-11-04T14:05:55.095Z,70.90
2018-11-04T14:08:24.005Z,71.00
2018-11-04T14:10:52.948Z,71.00
2018-11-04T14:13:22.044Z,71.20
2018-11-04T14:15:51.085Z,71.20
2018-11-04T14:18:20.533Z,71.30
2018-11-04T14:20:49.504Z,71.40
2018-11-04T14:23:18.483Z,71.50
2018-11-04T14:25:47.412Z,72.30
2018-11-04T14:28:16.586Z,71.50
2018-11-04T14:30:45.537Z,71.60
2018-11-04T14:33:14.471Z,71.70
2018-11-04T14:35:43.619Z,71.80
2018-11-04T14:38:12.667Z,72.00
2018-11-04T14:40:41.698Z,72.10
2018-11-04T14:43:10.942Z,72.20
2018-11-04T14:45:40.041Z,72.30
2018-11-04T14:48:09.149Z,72.40
2018-11-04T14:50:38.446Z,72.50
2018-11-04T14:53:07.718Z,72.50
2018-11-04T14:55:37.774Z,72.60
2018-11-04T14:58:06.942Z,72.60
2018-11-04T15:00:37.063Z,72.60
2018-11-04T15:03:07.861Z,72.60
2018-11-04T15:05:37.270Z,72.70
2018-11-04T15:08:06.435Z,72.70
2018-11-04T15:10:35.699Z,72.70
2018-11-04T15:13:05.033Z,72.70
2018-11-04T15:15:34.379Z,72.70
2018-11-04T15:18:03.826Z,72.80
2018-11-04T15:20:33.469Z,72.80
2018-11-04T15:23:02.634Z,72.80
2018-11-04T15:25:31.910Z,72.90
2018-11-04T15:28:01.026Z,73.00
2018-11-04T15:30:30.238Z,73.00
2018-11-04T15:32:59.391Z,73.10
2018-11-04T15:35:28.481Z,73.20
2018-11-04T15:37:57.622Z,73.20
2018-11-04T15:40:26.805Z,74.10
2018-11-04T15:42:56.328Z,73.50
2018-11-04T15:45:26.404Z,73.40
2018-11-04T15:48:03.132Z,73.50
2018-11-04T15:50:42.467Z,73.70
2018-11-04T15:53:17.995Z,73.70
2018-11-04T15:55:47.295Z,73.80
2018-11-04T15:58:16.533Z,73.80
2018-11-04T16:13:48.426Z,73.90
2018-11-04T16:16:18.429Z,74.00
2018-11-04T16:18:47.884Z,73.40
2018-11-04T16:21:17.008Z,74.00
2018-11-04T16:23:51.755Z,74.50
2018-11-04T16:32:48.448Z,74.80
2018-11-04T16:35:25.671Z,74.80
2018-11-04T16:37:56.061Z,74.90
2018-11-04T16:40:26.732Z,75.00
2018-11-04T16:42:56.548Z,75.10
2018-11-04T16:45:27.842Z,75.10
2018-11-04T16:47:57.495Z,75.30
2018-11-04T16:50:27.282Z,75.30
2018-11-04T16:52:57.292Z,75.40
2018-11-04T16:55:26.508Z,75.40
2018-11-04T16:57:57.455Z,75.60
2018-11-04T17:00:26.527Z,75.70
2018-11-04T17:02:55.407Z,75.80
2018-11-04T17:05:25.812Z,75.80
2018-11-04T17:07:55.654Z,75.90
2018-11-04T17:10:24.775Z,76.60
2018-11-04T17:12:53.799Z,75.90
2018-11-04T17:15:22.983Z,75.90
2018-11-04T17:17:52.079Z,75.90
2018-11-04T17:20:21.260Z,76.10
2018-11-04T17:22:50.352Z,76.10
2018-11-04T17:25:19.431Z,76.10
2018-11-04T17:27:48.434Z,76.90
2018-11-04T17:30:18.596Z,76.20
2018-11-04T17:32:48.112Z,76.30
2018-11-04T17:35:17.822Z,76.30
2018-11-04T17:37:47.317Z,76.30
2018-11-04T17:40:17.285Z,76.40
2018-11-04T17:42:46.472Z,76.40
2018-11-04T17:45:16.624Z,76.40
2018-11-04T17:47:46.298Z,76.40
2018-11-04T17:50:17.598Z,76.50
2018-11-04T17:52:46.722Z,76.50
2018-11-04T17:55:16.131Z,76.50
2018-11-04T17:57:45.649Z,76.60
2018-11-04T18:00:16.229Z,76.60
2018-11-04T18:02:45.802Z,76.60
2018-11-04T18:05:15.455Z,76.60
2018-11-04T18:07:45.301Z,76.60
2018-11-04T18:10:15.508Z,76.60
2018-11-04T18:12:45.032Z,76.60
2018-11-04T18:15:14.789Z,76.60
2018-11-04T18:17:44.720Z,76.70
2018-11-04T18:20:13.946Z,76.60
2018-11-04T18:22:43.560Z,76.60
2018-11-04T18:25:16.163Z,76.60
2018-11-04T18:27:45.532Z,76.70
2018-11-04T18:30:15.906Z,76.70
2018-11-04T18:32:45.533Z,76.70
2018-11-04T18:35:14.693Z,76.70
2018-11-04T18:37:56.076Z,76.80
2018-11-04T18:40:29.803Z,76.70
2018-11-04T18:42:59.210Z,76.70
2018-11-04T18:45:28.501Z,76.80
2018-11-04T18:48:12.534Z,76.80
2018-11-04T18:50:42.323Z,76.70
2018-11-04T18:53:11.746Z,76.70
2018-11-04T18:55:42.512Z,76.70
2018-11-04T18:59:29.606Z,76.80
2018-11-04T19:02:12.833Z,76.70
2018-11-04T19:04:42.716Z,76.60
2018-11-04T19:07:11.956Z,76.70
2018-11-04T19:09:42.481Z,76.80
2018-11-04T19:12:31.433Z,76.80
2018-11-04T19:15:02.767Z,76.80
2018-11-04T19:17:32.385Z,76.80
2018-11-04T19:20:01.742Z,76.90
2018-11-04T19:22:31.078Z,76.90
2018-11-04T19:25:00.408Z,76.80
2018-11-04T19:27:29.442Z,76.80
2018-11-04T19:29:58.834Z,76.80
2018-11-04T19:32:27.967Z,76.80
2018-11-04T19:34:57.877Z,76.80
2018-11-04T19:37:27.489Z,76.80
2018-11-04T19:39:56.615Z,76.80
2018-11-04T19:42:35.099Z,76.90
2018-11-04T19:45:18.328Z,76.80
2018-11-04T19:48:10.147Z,76.80
2018-11-04T19:50:42.273Z,76.80
2018-11-04T19:53:14.444Z,76.70
2018-11-04T19:55:44.797Z,76.70
2018-11-04T19:58:18.387Z,76.70
2018-11-04T20:00:48.954Z,76.60
2018-11-04T20:03:18.188Z,76.60
2018-11-04T20:05:47.570Z,76.50
2018-11-04T20:08:16.793Z,76.50
2018-11-04T20:10:45.985Z,76.50
2018-11-04T20:13:21.253Z,76.50
2018-11-04T20:15:50.840Z,77.20
2018-11-04T20:18:26.539Z,76.60
2018-11-04T20:20:56.064Z,76.60
2018-11-04T20:23:25.253Z,76.50
2018-11-04T20:26:02.231Z,76.40
2018-11-04T20:28:34.353Z,76.40
2018-11-04T20:31:03.627Z,76.30
2018-11-04T20:33:34.339Z,76.30
2018-11-04T20:36:05.079Z,76.30
2018-11-04T20:38:42.772Z,76.30
2018-11-04T20:41:17.097Z,76.40
2018-11-04T20:43:46.544Z,76.10
2018-11-04T20:46:15.627Z,76.30
2018-11-04T20:48:49.971Z,76.10
2018-11-04T20:51:19.075Z,76.10
2018-11-04T20:53:48.156Z,76.10
2018-11-04T20:56:22.494Z,76.20
2018-11-04T20:58:51.548Z,76.20
2018-11-04T21:01:20.604Z,76.20
2018-11-04T21:03:50.189Z,76.10
2018-11-04T21:06:19.253Z,76.20
2018-11-04T21:08:48.422Z,76.20
2018-11-04T21:11:17.576Z,76.20
2018-11-04T21:13:47.883Z,76.20
2018-11-04T21:16:17.043Z,76.20
2018-11-04T21:18:47.447Z,76.20
2018-11-04T21:21:16.565Z,76.20
2018-11-04T21:23:45.796Z,76.20
2018-11-04T21:26:14.821Z,76.20
2018-11-04T21:28:44.234Z,76.20
2018-11-04T21:31:13.415Z,76.10
2018-11-04T21:33:42.605Z,76.10
2018-11-04T21:36:11.762Z,76.00
2018-11-04T21:38:41.937Z,76.00
2018-11-04T21:41:11.146Z,76.00
2018-11-04T21:43:40.603Z,76.10
2018-11-04T21:46:09.489Z,76.20
2018-11-04T21:48:39.488Z,76.20
2018-11-04T21:51:08.752Z,76.10
2018-11-04T21:53:37.806Z,76.10
2018-11-04T21:56:08.089Z,76.10
2018-11-04T21:58:37.595Z,76.20
2018-11-04T22:01:07.462Z,76.20
2018-11-04T22:03:37.633Z,76.20
2018-11-04T22:06:06.939Z,76.20
2018-11-04T22:08:36.150Z,76.20
2018-11-04T22:11:05.221Z,76.20
2018-11-04T22:13:34.387Z,76.30
2018-11-04T22:16:03.652Z,76.30
2018-11-04T22:18:32.668Z,76.30
2018-11-04T22:21:01.856Z,76.30
2018-11-04T22:23:31.004Z,76.30
2018-11-04T22:25:59.910Z,76.30
2018-11-04T22:28:29.004Z,76.30
2018-11-04T22:30:57.990Z,76.30
2018-11-04T22:33:26.944Z,76.30
2018-11-04T22:35:56.043Z,76.30
2018-11-04T22:38:25.039Z,76.30
2018-11-04T22:40:54.108Z,76.30
2018-11-04T22:43:23.084Z,76.30
2018-11-04T22:45:52.069Z,76.30
2018-11-04T22:48:21.140Z,76.30
2018-11-04T22:50:50.214Z,76.30
2018-11-04T22:53:19.130Z,76.30
2018-11-04T22:55:48.113Z,76.30
2018-11-04T22:58:17.118Z,76.30
2018-11-04T23:00:47.049Z,76.50
2018-11-04T23:03:16.026Z,76.40
2018-11-04T23:05:45.036Z,76.30
2018-11-04T23:08:13.985Z,76.20
2018-11-04T23:10:43.044Z,76.30
2018-11-04T23:13:12.859Z,76.30
2018-11-04T23:15:41.761Z,76.30
2018-11-04T23:18:10.738Z,76.30
2018-11-04T23:20:39.733Z,76.20
2018-11-04T23:23:09.474Z,76.20
2018-11-04T23:25:38.520Z,76.20
2018-11-04T23:28:07.822Z,76.20
2018-11-04T23:30:36.864Z,76.10
2018-11-04T23:33:05.886Z,76.10
2018-11-04T23:35:34.987Z,76.10
2018-11-04T23:38:04.018Z,76.20
2018-11-04T23:40:34.156Z,76.20
2018-11-04T23:43:03.184Z,76.10
2018-11-04T23:45:32.248Z,76.10
2018-11-04T23:48:01.179Z,76.20
2018-11-04T23:50:30.298Z,76.10
2018-11-04T23:53:00.161Z,76.20
2018-11-04T23:55:29.256Z,76.90
2018-11-04T23:57:58.384Z,76.20
